Grand Ace2 — D7RC — position and weather

sailwx.info

Track history (hours):
 
Tides and Currents Weather Stations Pressure Air Temp Water Temp Dewpoint Dewpoint Depression Visibility Wind Speed Wind Dir Waves Ship Positions

Grand Ace2

Last reported at 2017-Dec-09 08:02 UTC. Time now 2017-Dec-12 14:19 UTC.
Position N 10°08' W 080°02'.

Length 183 m; draft 7.6 m.

Type: Tanker. MMSI: 440817000.

Date/timePositionNaut miles runAvg speedWind from/ knotsBaromVisibWave heightAir tempDewpointWater temp
2017-Dec-09 08:02N 10°08' W 080°02'010.5
2017-Dec-09 08:00N 10°08' W 080°02'2712.7
2017-Dec-09 05:53N 09°42' W 079°58'512.6
2017-Dec-09 05:30N 09°37' W 079°57'612.7
2017-Dec-09 05:00N 09°31' W 079°55'713.3
2017-Dec-09 04:30N 09°24' W 079°55'510.5
2017-Dec-09 04:00N 09°19' W 079°55'2 4.5
2017-Dec-09 03:30N 09°17' W 079°55'0 0.7
2017-Dec-09 03:00N 09°16' W 079°55'0 0.7
2017-Dec-09 02:30N 09°16' W 079°55'2 4.8
2017-Dec-09 02:00N 09°14' W 079°55'4 8.3
2017-Dec-09 01:30N 09°11' W 079°52'510.4
2017-Dec-09 01:00N 09°07' W 079°48'  
Track history (hours):
 
Tides and Currents Weather Stations Pressure Air Temp Water Temp Dewpoint Dewpoint Depression Visibility Wind Speed Wind Dir Waves Ship Positions

Grand Ace2

Last reported at 2017-Dec-09 08:02 UTC. Time now 2017-Dec-12 14:19 UTC.
Position N 10°08' W 080°02'.

Length 183 m; draft 7.6 m.

Type: Tanker. MMSI: 440817000.

Date/timePositionNaut miles runAvg speedWind from/ knotsBaromVisibWave heightAir tempDewpointWater temp
2017-Dec-09 08:02N 10°08' W 080°02'010.5
2017-Dec-09 08:00N 10°08' W 080°02'2712.7
2017-Dec-09 05:53N 09°42' W 079°58'512.6
2017-Dec-09 05:30N 09°37' W 079°57'612.7
2017-Dec-09 05:00N 09°31' W 079°55'713.3
2017-Dec-09 04:30N 09°24' W 079°55'510.5
2017-Dec-09 04:00N 09°19' W 079°55'2 4.5
2017-Dec-09 03:30N 09°17' W 079°55'0 0.7
2017-Dec-09 03:00N 09°16' W 079°55'0 0.7
2017-Dec-09 02:30N 09°16' W 079°55'2 4.8
2017-Dec-09 02:00N 09°14' W 079°55'4 8.3
2017-Dec-09 01:30N 09°11' W 079°52'510.4
2017-Dec-09 01:00N 09°07' W 079°48'  

Dump ship's entire track history